sensor_id;sensor_type;location;lat;lon;timestamp;P1;durP1;ratioP1;P2;durP2;ratioP2
69185;SDS011;56298;49.246;9.410;2022-08-19T00:01:03;15.67;;;12.30;;
69185;SDS011;56298;49.246;9.410;2022-08-19T00:03:28;14.27;;;12.10;;
69185;SDS011;56298;49.246;9.410;2022-08-19T00:05:53;15.00;;;12.10;;
69185;SDS011;56298;49.246;9.410;2022-08-19T00:08:18;15.43;;;12.37;;
69185;SDS011;56298;49.246;9.410;2022-08-19T00:10:44;15.63;;;12.33;;
69185;SDS011;56298;49.246;9.410;2022-08-19T00:13:10;15.65;;;12.48;;
69185;SDS011;56298;49.246;9.410;2022-08-19T00:15:36;17.27;;;12.33;;
69185;SDS011;56298;49.246;9.410;2022-08-19T00:18:01;16.85;;;12.25;;
69185;SDS011;56298;49.246;9.410;2022-08-19T00:20:27;16.07;;;12.87;;
69185;SDS011;56298;49.246;9.410;2022-08-19T00:22:52;16.00;;;12.63;;
69185;SDS011;56298;49.246;9.410;2022-08-19T00:25:17;14.70;;;11.93;;
69185;SDS011;56298;49.246;9.410;2022-08-19T00:27:43;15.60;;;12.10;;
69185;SDS011;56298;49.246;9.410;2022-08-19T00:30:08;15.10;;;12.23;;
69185;SDS011;56298;49.246;9.410;2022-08-19T00:32:35;15.77;;;12.30;;
69185;SDS011;56298;49.246;9.410;2022-08-19T00:35:01;14.32;;;11.52;;
69185;SDS011;56298;49.246;9.410;2022-08-19T00:37:26;15.27;;;11.83;;
69185;SDS011;56298;49.246;9.410;2022-08-19T00:39:53;14.20;;;12.35;;
69185;SDS011;56298;49.246;9.410;2022-08-19T00:42:19;15.60;;;12.30;;
69185;SDS011;56298;49.246;9.410;2022-08-19T00:44:45;16.35;;;12.25;;
69185;SDS011;56298;49.246;9.410;2022-08-19T00:47:11;15.23;;;11.80;;
69185;SDS011;56298;49.246;9.410;2022-08-19T00:49:41;14.00;;;11.95;;
69185;SDS011;56298;49.246;9.410;2022-08-19T00:52:35;15.60;;;11.73;;
69185;SDS011;56298;49.246;9.410;2022-08-19T00:55:05;16.38;;;11.98;;
69185;SDS011;56298;49.246;9.410;2022-08-19T00:57:36;15.00;;;12.30;;
69185;SDS011;56298;49.246;9.410;2022-08-19T01:00:06;15.95;;;12.30;;
69185;SDS011;56298;49.246;9.410;2022-08-19T01:02:37;16.55;;;12.93;;
69185;SDS011;56298;49.246;9.410;2022-08-19T01:05:05;16.17;;;12.80;;
69185;SDS011;56298;49.246;9.410;2022-08-19T01:07:33;15.70;;;12.50;;
69185;SDS011;56298;49.246;9.410;2022-08-19T01:09:59;16.55;;;12.50;;
69185;SDS011;56298;49.246;9.410;2022-08-19T01:12:25;16.00;;;12.50;;
69185;SDS011;56298;49.246;9.410;2022-08-19T01:14:50;15.53;;;11.87;;
69185;SDS011;56298;49.246;9.410;2022-08-19T01:17:17;15.05;;;12.27;;
69185;SDS011;56298;49.246;9.410;2022-08-19T01:19:43;15.70;;;12.50;;
69185;SDS011;56298;49.246;9.410;2022-08-19T01:24:49;15.80;;;12.65;;
69185;SDS011;56298;49.246;9.410;2022-08-19T01:27:16;17.45;;;13.57;;
69185;SDS011;56298;49.246;9.410;2022-08-19T01:29:42;15.02;;;12.77;;
69185;SDS011;56298;49.246;9.410;2022-08-19T01:32:09;16.80;;;12.75;;
69185;SDS011;56298;49.246;9.410;2022-08-19T01:34:37;16.23;;;13.03;;
69185;SDS011;56298;49.246;9.410;2022-08-19T01:40:26;16.90;;;12.90;;
69185;SDS011;56298;49.246;9.410;2022-08-19T01:42:56;17.95;;;13.18;;
69185;SDS011;56298;49.246;9.410;2022-08-19T01:45:22;17.08;;;12.77;;
69185;SDS011;56298;49.246;9.410;2022-08-19T01:47:50;15.00;;;12.15;;
69185;SDS011;56298;49.246;9.410;2022-08-19T01:50:16;16.20;;;12.63;;
69185;SDS011;56298;49.246;9.410;2022-08-19T01:52:42;16.03;;;12.70;;
69185;SDS011;56298;49.246;9.410;2022-08-19T01:55:10;14.45;;;12.25;;
69185;SDS011;56298;49.246;9.410;2022-08-19T01:57:38;15.93;;;12.90;;
69185;SDS011;56298;49.246;9.410;2022-08-19T02:00:07;15.75;;;12.63;;
69185;SDS011;56298;49.246;9.410;2022-08-19T02:02:34;16.48;;;13.05;;
69185;SDS011;56298;49.246;9.410;2022-08-19T02:04:59;15.20;;;12.73;;
69185;SDS011;56298;49.246;9.410;2022-08-19T02:07:25;15.97;;;12.93;;
69185;SDS011;56298;49.246;9.410;2022-08-19T02:09:50;17.37;;;13.00;;
69185;SDS011;56298;49.246;9.410;2022-08-19T02:12:16;15.98;;;13.20;;
69185;SDS011;56298;49.246;9.410;2022-08-19T02:14:41;18.03;;;13.40;;
69185;SDS011;56298;49.246;9.410;2022-08-19T02:17:07;16.58;;;13.10;;
69185;SDS011;56298;49.246;9.410;2022-08-19T02:19:32;17.70;;;13.67;;
69185;SDS011;56298;49.246;9.410;2022-08-19T02:21:58;17.43;;;13.70;;
69185;SDS011;56298;49.246;9.410;2022-08-19T02:24:24;18.00;;;13.82;;
69185;SDS011;56298;49.246;9.410;2022-08-19T02:26:50;16.40;;;12.95;;
69185;SDS011;56298;49.246;9.410;2022-08-19T02:29:16;16.23;;;13.20;;
69185;SDS011;56298;49.246;9.410;2022-08-19T02:31:41;17.17;;;13.67;;
69185;SDS011;56298;49.246;9.410;2022-08-19T02:34:06;16.67;;;13.30;;
69185;SDS011;56298;49.246;9.410;2022-08-19T02:36:32;18.17;;;13.20;;
69185;SDS011;56298;49.246;9.410;2022-08-19T02:38:57;18.50;;;13.47;;
69185;SDS011;56298;49.246;9.410;2022-08-19T02:41:26;19.40;;;14.00;;
69185;SDS011;56298;49.246;9.410;2022-08-19T02:43:55;16.65;;;13.23;;
69185;SDS011;56298;49.246;9.410;2022-08-19T02:46:26;18.55;;;13.68;;
69185;SDS011;56298;49.246;9.410;2022-08-19T02:48:55;16.92;;;12.90;;
69185;SDS011;56298;49.246;9.410;2022-08-19T02:51:23;16.73;;;13.10;;
69185;SDS011;56298;49.246;9.410;2022-08-19T02:53:52;16.95;;;13.88;;
69185;SDS011;56298;49.246;9.410;2022-08-19T02:56:18;17.83;;;13.23;;
69185;SDS011;56298;49.246;9.410;2022-08-19T02:58:44;19.07;;;14.67;;
69185;SDS011;56298;49.246;9.410;2022-08-19T03:01:10;18.10;;;14.00;;
69185;SDS011;56298;49.246;9.410;2022-08-19T03:03:36;16.40;;;13.33;;
69185;SDS011;56298;49.246;9.410;2022-08-19T03:06:03;18.37;;;13.43;;
69185;SDS011;56298;49.246;9.410;2022-08-19T03:08:29;17.00;;;13.97;;
69185;SDS011;56298;49.246;9.410;2022-08-19T03:10:55;17.53;;;13.93;;
69185;SDS011;56298;49.246;9.410;2022-08-19T03:13:20;17.88;;;14.30;;
69185;SDS011;56298;49.246;9.410;2022-08-19T03:15:46;18.27;;;14.50;;
69185;SDS011;56298;49.246;9.410;2022-08-19T03:18:12;18.08;;;14.30;;
69185;SDS011;56298;49.246;9.410;2022-08-19T03:20:42;19.48;;;14.85;;
69185;SDS011;56298;49.246;9.410;2022-08-19T03:23:09;18.53;;;14.90;;
69185;SDS011;56298;49.246;9.410;2022-08-19T03:25:38;17.23;;;14.57;;
69185;SDS011;56298;49.246;9.410;2022-08-19T03:28:06;20.23;;;14.88;;
69185;SDS011;56298;49.246;9.410;2022-08-19T03:30:32;17.50;;;13.47;;
69185;SDS011;56298;49.246;9.410;2022-08-19T03:32:57;18.27;;;13.98;;
69185;SDS011;56298;49.246;9.410;2022-08-19T03:35:22;18.03;;;13.83;;
69185;SDS011;56298;49.246;9.410;2022-08-19T03:37:48;18.60;;;13.70;;
69185;SDS011;56298;49.246;9.410;2022-08-19T03:40:13;19.10;;;14.37;;
69185;SDS011;56298;49.246;9.410;2022-08-19T03:42:38;18.53;;;14.10;;
69185;SDS011;56298;49.246;9.410;2022-08-19T03:45:07;18.13;;;14.13;;
69185;SDS011;56298;49.246;9.410;2022-08-19T03:47:33;18.13;;;13.83;;
69185;SDS011;56298;49.246;9.410;2022-08-19T03:49:58;19.23;;;14.37;;
69185;SDS011;56298;49.246;9.410;2022-08-19T03:52:23;18.63;;;14.93;;
69185;SDS011;56298;49.246;9.410;2022-08-19T03:54:48;20.07;;;14.53;;
69185;SDS011;56298;49.246;9.410;2022-08-19T03:57:14;18.50;;;14.63;;
69185;SDS011;56298;49.246;9.410;2022-08-19T03:59:39;17.50;;;13.27;;
69185;SDS011;56298;49.246;9.410;2022-08-19T04:02:11;18.23;;;14.00;;
69185;SDS011;56298;49.246;9.410;2022-08-19T04:04:38;16.83;;;13.60;;
69185;SDS011;56298;49.246;9.410;2022-08-19T04:07:05;17.73;;;14.30;;
69185;SDS011;56298;49.246;9.410;2022-08-19T04:09:30;18.13;;;14.48;;
69185;SDS011;56298;49.246;9.410;2022-08-19T04:11:57;17.80;;;13.98;;
69185;SDS011;56298;49.246;9.410;2022-08-19T04:14:24;18.50;;;14.50;;
69185;SDS011;56298;49.246;9.410;2022-08-19T04:16:54;17.13;;;14.43;;
69185;SDS011;56298;49.246;9.410;2022-08-19T04:19:19;18.42;;;14.10;;
69185;SDS011;56298;49.246;9.410;2022-08-19T04:21:46;19.13;;;14.10;;
69185;SDS011;56298;49.246;9.410;2022-08-19T04:24:14;18.63;;;14.52;;
69185;SDS011;56298;49.246;9.410;2022-08-19T04:26:40;18.05;;;14.10;;
69185;SDS011;56298;49.246;9.410;2022-08-19T04:29:09;18.52;;;15.07;;
69185;SDS011;56298;49.246;9.410;2022-08-19T04:31:37;19.77;;;14.70;;
69185;SDS011;56298;49.246;9.410;2022-08-19T04:34:04;17.60;;;14.48;;
69185;SDS011;56298;49.246;9.410;2022-08-19T04:36:33;18.00;;;14.27;;
69185;SDS011;56298;49.246;9.410;2022-08-19T04:39:03;18.77;;;14.93;;
69185;SDS011;56298;49.246;9.410;2022-08-19T04:41:30;19.00;;;15.07;;
69185;SDS011;56298;49.246;9.410;2022-08-19T04:44:14;20.00;;;14.83;;
69185;SDS011;56298;49.246;9.410;2022-08-19T04:46:43;19.95;;;15.15;;
69185;SDS011;56298;49.246;9.410;2022-08-19T04:49:08;18.98;;;14.77;;
69185;SDS011;56298;49.246;9.410;2022-08-19T04:51:34;18.80;;;15.20;;
69185;SDS011;56298;49.246;9.410;2022-08-19T04:54:00;20.13;;;15.23;;
69185;SDS011;56298;49.246;9.410;2022-08-19T04:56:26;20.52;;;15.38;;
69185;SDS011;56298;49.246;9.410;2022-08-19T04:58:53;19.55;;;15.35;;
69185;SDS011;56298;49.246;9.410;2022-08-19T05:01:23;17.80;;;14.10;;
69185;SDS011;56298;49.246;9.410;2022-08-19T05:03:51;17.67;;;13.57;;
69185;SDS011;56298;49.246;9.410;2022-08-19T05:06:18;18.55;;;14.25;;
69185;SDS011;56298;49.246;9.410;2022-08-19T05:08:44;17.50;;;13.90;;
69185;SDS011;56298;49.246;9.410;2022-08-19T05:13:41;19.70;;;15.00;;
69185;SDS011;56298;49.246;9.410;2022-08-19T05:16:08;18.45;;;14.63;;
69185;SDS011;56298;49.246;9.410;2022-08-19T05:18:35;18.95;;;14.63;;
69185;SDS011;56298;49.246;9.410;2022-08-19T05:21:19;17.10;;;13.87;;
69185;SDS011;56298;49.246;9.410;2022-08-19T05:24:05;18.53;;;14.67;;
69185;SDS011;56298;49.246;9.410;2022-08-19T05:26:37;18.33;;;13.88;;
69185;SDS011;56298;49.246;9.410;2022-08-19T05:29:07;19.35;;;15.02;;
69185;SDS011;56298;49.246;9.410;2022-08-19T05:31:34;19.33;;;14.40;;
69185;SDS011;56298;49.246;9.410;2022-08-19T05:34:04;19.52;;;15.25;;
69185;SDS011;56298;49.246;9.410;2022-08-19T05:36:34;22.05;;;15.60;;
69185;SDS011;56298;49.246;9.410;2022-08-19T05:39:04;21.20;;;15.40;;
69185;SDS011;56298;49.246;9.410;2022-08-19T05:41:30;19.63;;;14.80;;
69185;SDS011;56298;49.246;9.410;2022-08-19T05:43:56;22.77;;;16.13;;
69185;SDS011;56298;49.246;9.410;2022-08-19T05:46:22;17.52;;;14.10;;
69185;SDS011;56298;49.246;9.410;2022-08-19T05:48:48;18.77;;;14.40;;
69185;SDS011;56298;49.246;9.410;2022-08-19T05:51:14;18.88;;;14.23;;
69185;SDS011;56298;49.246;9.410;2022-08-19T05:53:40;16.45;;;13.70;;
69185;SDS011;56298;49.246;9.410;2022-08-19T05:56:07;18.42;;;15.10;;
69185;SDS011;56298;49.246;9.410;2022-08-19T05:58:35;18.25;;;15.32;;
69185;SDS011;56298;49.246;9.410;2022-08-19T06:01:01;18.47;;;14.67;;
69185;SDS011;56298;49.246;9.410;2022-08-19T06:03:30;18.92;;;15.25;;
69185;SDS011;56298;49.246;9.410;2022-08-19T06:05:58;19.00;;;14.97;;
69185;SDS011;56298;49.246;9.410;2022-08-19T06:08:24;20.63;;;16.03;;
69185;SDS011;56298;49.246;9.410;2022-08-19T06:10:49;20.98;;;16.38;;
69185;SDS011;56298;49.246;9.410;2022-08-19T06:13:15;23.23;;;17.00;;
69185;SDS011;56298;49.246;9.410;2022-08-19T06:15:40;20.23;;;14.93;;
69185;SDS011;56298;49.246;9.410;2022-08-19T06:18:08;17.65;;;14.05;;
69185;SDS011;56298;49.246;9.410;2022-08-19T06:20:34;21.10;;;14.10;;
69185;SDS011;56298;49.246;9.410;2022-08-19T06:22:59;19.63;;;14.23;;
69185;SDS011;56298;49.246;9.410;2022-08-19T06:25:24;18.63;;;14.80;;
69185;SDS011;56298;49.246;9.410;2022-08-19T06:27:49;18.87;;;15.17;;
69185;SDS011;56298;49.246;9.410;2022-08-19T06:30:15;19.37;;;14.93;;
69185;SDS011;56298;49.246;9.410;2022-08-19T06:32:40;18.93;;;14.30;;
69185;SDS011;56298;49.246;9.410;2022-08-19T06:35:06;20.17;;;14.95;;
69185;SDS011;56298;49.246;9.410;2022-08-19T06:37:32;21.63;;;15.17;;
69185;SDS011;56298;49.246;9.410;2022-08-19T06:39:57;21.60;;;15.90;;
69185;SDS011;56298;49.246;9.410;2022-08-19T06:42:22;21.70;;;16.30;;
69185;SDS011;56298;49.246;9.410;2022-08-19T06:44:48;19.43;;;14.47;;
69185;SDS011;56298;49.246;9.410;2022-08-19T06:47:15;22.67;;;15.85;;
69185;SDS011;56298;49.246;9.410;2022-08-19T06:49:44;20.85;;;15.80;;
69185;SDS011;56298;49.246;9.410;2022-08-19T06:52:09;22.00;;;16.30;;
69185;SDS011;56298;49.246;9.410;2022-08-19T06:54:39;19.17;;;14.27;;
69185;SDS011;56298;49.246;9.410;2022-08-19T06:57:06;17.83;;;14.65;;
69185;SDS011;56298;49.246;9.410;2022-08-19T06:59:32;21.10;;;15.77;;
69185;SDS011;56298;49.246;9.410;2022-08-19T07:01:58;21.40;;;16.08;;
69185;SDS011;56298;49.246;9.410;2022-08-19T07:04:30;21.90;;;16.17;;
69185;SDS011;56298;49.246;9.410;2022-08-19T07:06:58;22.98;;;15.77;;
69185;SDS011;56298;49.246;9.410;2022-08-19T07:09:26;20.45;;;15.27;;
69185;SDS011;56298;49.246;9.410;2022-08-19T07:11:52;21.55;;;15.70;;
69185;SDS011;56298;49.246;9.410;2022-08-19T07:14:19;21.98;;;15.80;;
69185;SDS011;56298;49.246;9.410;2022-08-19T07:16:48;20.00;;;15.20;;
69185;SDS011;56298;49.246;9.410;2022-08-19T07:19:15;21.75;;;15.35;;
69185;SDS011;56298;49.246;9.410;2022-08-19T07:21:41;20.85;;;15.38;;
69185;SDS011;56298;49.246;9.410;2022-08-19T07:24:07;20.87;;;15.97;;
69185;SDS011;56298;49.246;9.410;2022-08-19T07:26:35;20.20;;;15.15;;
69185;SDS011;56298;49.246;9.410;2022-08-19T07:29:04;20.67;;;15.50;;
69185;SDS011;56298;49.246;9.410;2022-08-19T07:31:29;19.10;;;14.43;;
69185;SDS011;56298;49.246;9.410;2022-08-19T07:33:55;19.83;;;14.70;;
69185;SDS011;56298;49.246;9.410;2022-08-19T07:36:23;19.25;;;14.60;;
69185;SDS011;56298;49.246;9.410;2022-08-19T07:38:50;21.35;;;14.43;;
69185;SDS011;56298;49.246;9.410;2022-08-19T07:41:18;19.20;;;14.00;;
69185;SDS011;56298;49.246;9.410;2022-08-19T07:43:46;20.77;;;15.02;;
69185;SDS011;56298;49.246;9.410;2022-08-19T07:46:12;21.60;;;14.70;;
69185;SDS011;56298;49.246;9.410;2022-08-19T07:48:39;19.08;;;13.90;;
69185;SDS011;56298;49.246;9.410;2022-08-19T07:51:07;19.42;;;14.50;;
69185;SDS011;56298;49.246;9.410;2022-08-19T07:53:34;19.35;;;14.70;;
69185;SDS011;56298;49.246;9.410;2022-08-19T07:56:00;20.17;;;14.68;;
69185;SDS011;56298;49.246;9.410;2022-08-19T07:58:27;18.07;;;13.60;;
69185;SDS011;56298;49.246;9.410;2022-08-19T08:00:53;19.45;;;13.38;;
69185;SDS011;56298;49.246;9.410;2022-08-19T08:03:19;17.00;;;12.57;;
69185;SDS011;56298;49.246;9.410;2022-08-19T08:06:06;19.70;;;12.87;;
69185;SDS011;56298;49.246;9.410;2022-08-19T08:08:51;19.92;;;13.30;;
69185;SDS011;56298;49.246;9.410;2022-08-19T08:11:35;17.13;;;12.38;;
69185;SDS011;56298;49.246;9.410;2022-08-19T08:14:00;20.23;;;12.20;;
69185;SDS011;56298;49.246;9.410;2022-08-19T08:16:26;18.75;;;12.80;;
69185;SDS011;56298;49.246;9.410;2022-08-19T08:18:54;18.70;;;12.82;;
69185;SDS011;56298;49.246;9.410;2022-08-19T08:21:20;16.63;;;11.90;;
69185;SDS011;56298;49.246;9.410;2022-08-19T08:23:45;18.53;;;12.10;;
69185;SDS011;56298;49.246;9.410;2022-08-19T08:26:10;17.13;;;11.40;;
69185;SDS011;56298;49.246;9.410;2022-08-19T08:28:37;16.67;;;11.77;;
69185;SDS011;56298;49.246;9.410;2022-08-19T08:31:03;16.38;;;10.90;;
69185;SDS011;56298;49.246;9.410;2022-08-19T08:33:29;16.93;;;11.17;;
69185;SDS011;56298;49.246;9.410;2022-08-19T08:35:55;16.10;;;10.73;;
69185;SDS011;56298;49.246;9.410;2022-08-19T08:38:20;15.30;;;11.60;;
69185;SDS011;56298;49.246;9.410;2022-08-19T08:40:53;15.40;;;11.30;;
69185;SDS011;56298;49.246;9.410;2022-08-19T08:43:38;15.57;;;11.90;;
69185;SDS011;56298;49.246;9.410;2022-08-19T08:46:13;15.15;;;11.18;;
69185;SDS011;56298;49.246;9.410;2022-08-19T08:48:55;14.32;;;10.98;;
69185;SDS011;56298;49.246;9.410;2022-08-19T08:51:40;16.27;;;11.07;;
69185;SDS011;56298;49.246;9.410;2022-08-19T08:54:10;15.90;;;11.32;;
69185;SDS011;56298;49.246;9.410;2022-08-19T08:56:41;15.63;;;11.40;;
69185;SDS011;56298;49.246;9.410;2022-08-19T08:59:10;15.05;;;11.40;;
69185;SDS011;56298;49.246;9.410;2022-08-19T09:01:37;15.87;;;11.17;;
69185;SDS011;56298;49.246;9.410;2022-08-19T09:04:06;15.38;;;11.35;;
69185;SDS011;56298;49.246;9.410;2022-08-19T09:12:12;14.55;;;10.38;;
69185;SDS011;56298;49.246;9.410;2022-08-19T09:17:28;15.83;;;10.73;;
69185;SDS011;56298;49.246;9.410;2022-08-19T09:20:16;15.75;;;10.90;;
69185;SDS011;56298;49.246;9.410;2022-08-19T09:22:45;14.73;;;11.25;;
69185;SDS011;56298;49.246;9.410;2022-08-19T09:25:12;14.53;;;10.50;;
69185;SDS011;56298;49.246;9.410;2022-08-19T09:27:40;15.10;;;11.20;;
69185;SDS011;56298;49.246;9.410;2022-08-19T09:30:08;14.70;;;11.40;;
69185;SDS011;56298;49.246;9.410;2022-08-19T09:32:35;15.43;;;11.07;;
69185;SDS011;56298;49.246;9.410;2022-08-19T09:35:00;16.52;;;11.40;;
69185;SDS011;56298;49.246;9.410;2022-08-19T09:37:26;17.20;;;12.20;;
69185;SDS011;56298;49.246;9.410;2022-08-19T09:39:53;16.15;;;12.15;;
69185;SDS011;56298;49.246;9.410;2022-08-19T09:42:19;15.63;;;11.57;;
69185;SDS011;56298;49.246;9.410;2022-08-19T09:44:45;14.52;;;11.52;;
69185;SDS011;56298;49.246;9.410;2022-08-19T09:47:11;15.40;;;11.55;;
69185;SDS011;56298;49.246;9.410;2022-08-19T09:49:38;14.40;;;11.18;;
69185;SDS011;56298;49.246;9.410;2022-08-19T09:52:04;14.07;;;11.07;;
69185;SDS011;56298;49.246;9.410;2022-08-19T09:54:32;18.35;;;11.10;;
69185;SDS011;56298;49.246;9.410;2022-08-19T09:56:58;14.20;;;10.83;;
69185;SDS011;56298;49.246;9.410;2022-08-19T09:59:25;14.48;;;10.35;;
69185;SDS011;56298;49.246;9.410;2022-08-19T10:01:50;14.47;;;10.60;;
69185;SDS011;56298;49.246;9.410;2022-08-19T10:04:16;13.60;;;9.75;;
69185;SDS011;56298;49.246;9.410;2022-08-19T10:06:42;15.57;;;10.10;;
69185;SDS011;56298;49.246;9.410;2022-08-19T10:09:07;12.80;;;9.37;;
69185;SDS011;56298;49.246;9.410;2022-08-19T10:11:35;12.48;;;9.23;;
69185;SDS011;56298;49.246;9.410;2022-08-19T10:14:03;12.95;;;9.57;;
69185;SDS011;56298;49.246;9.410;2022-08-19T10:16:30;12.27;;;8.95;;
69185;SDS011;56298;49.246;9.410;2022-08-19T10:18:59;11.82;;;8.90;;
69185;SDS011;56298;49.246;9.410;2022-08-19T10:21:26;11.80;;;8.68;;
69185;SDS011;56298;49.246;9.410;2022-08-19T10:23:56;13.48;;;8.98;;
69185;SDS011;56298;49.246;9.410;2022-08-19T10:26:24;12.55;;;8.48;;
69185;SDS011;56298;49.246;9.410;2022-08-19T10:28:54;11.35;;;7.93;;
69185;SDS011;56298;49.246;9.410;2022-08-19T10:31:22;12.40;;;7.63;;
69185;SDS011;56298;49.246;9.410;2022-08-19T10:33:52;10.95;;;7.30;;
69185;SDS011;56298;49.246;9.410;2022-08-19T10:36:24;10.82;;;7.20;;
69185;SDS011;56298;49.246;9.410;2022-08-19T10:38:55;12.32;;;7.53;;
69185;SDS011;56298;49.246;9.410;2022-08-19T10:41:25;11.82;;;7.60;;
69185;SDS011;56298;49.246;9.410;2022-08-19T10:43:55;11.27;;;7.40;;
69185;SDS011;56298;49.246;9.410;2022-08-19T10:46:23;10.38;;;7.35;;
69185;SDS011;56298;49.246;9.410;2022-08-19T10:48:51;10.15;;;6.88;;
69185;SDS011;56298;49.246;9.410;2022-08-19T10:51:18;10.23;;;6.80;;
69185;SDS011;56298;49.246;9.410;2022-08-19T10:54:02;10.15;;;7.20;;
69185;SDS011;56298;49.246;9.410;2022-08-19T10:56:28;9.83;;;7.00;;
69185;SDS011;56298;49.246;9.410;2022-08-19T10:59:13;10.63;;;7.10;;
69185;SDS011;56298;49.246;9.410;2022-08-19T11:01:40;9.63;;;6.82;;
69185;SDS011;56298;49.246;9.410;2022-08-19T11:04:06;9.73;;;7.28;;
69185;SDS011;56298;49.246;9.410;2022-08-19T11:06:36;8.02;;;5.93;;
69185;SDS011;56298;49.246;9.410;2022-08-19T11:09:03;8.20;;;5.60;;
69185;SDS011;56298;49.246;9.410;2022-08-19T11:11:30;8.40;;;5.70;;
69185;SDS011;56298;49.246;9.410;2022-08-19T11:13:57;8.37;;;4.97;;
69185;SDS011;56298;49.246;9.410;2022-08-19T11:16:23;8.15;;;4.97;;
69185;SDS011;56298;49.246;9.410;2022-08-19T11:18:56;9.23;;;5.10;;
69185;SDS011;56298;49.246;9.410;2022-08-19T11:21:28;7.10;;;4.80;;
69185;SDS011;56298;49.246;9.410;2022-08-19T11:23:59;7.28;;;4.70;;
69185;SDS011;56298;49.246;9.410;2022-08-19T11:26:29;8.03;;;4.80;;
69185;SDS011;56298;49.246;9.410;2022-08-19T11:28:56;7.40;;;4.30;;
69185;SDS011;56298;49.246;9.410;2022-08-19T11:31:23;8.10;;;4.60;;
69185;SDS011;56298;49.246;9.410;2022-08-19T11:33:51;7.38;;;4.47;;
69185;SDS011;56298;49.246;9.410;2022-08-19T11:36:17;7.22;;;4.50;;
69185;SDS011;56298;49.246;9.410;2022-08-19T11:38:44;6.57;;;4.25;;
69185;SDS011;56298;49.246;9.410;2022-08-19T11:41:10;7.22;;;4.00;;
69185;SDS011;56298;49.246;9.410;2022-08-19T11:43:36;6.95;;;4.03;;
69185;SDS011;56298;49.246;9.410;2022-08-19T11:46:05;7.20;;;4.18;;
69185;SDS011;56298;49.246;9.410;2022-08-19T11:48:32;6.93;;;4.00;;
69185;SDS011;56298;49.246;9.410;2022-08-19T11:50:58;9.40;;;4.00;;
69185;SDS011;56298;49.246;9.410;2022-08-19T11:53:23;6.38;;;3.80;;
69185;SDS011;56298;49.246;9.410;2022-08-19T11:55:49;7.37;;;4.00;;
69185;SDS011;56298;49.246;9.410;2022-08-19T11:58:21;6.50;;;3.67;;
69185;SDS011;56298;49.246;9.410;2022-08-19T12:00:46;6.45;;;3.80;;
69185;SDS011;56298;49.246;9.410;2022-08-19T12:03:12;6.97;;;4.00;;
69185;SDS011;56298;49.246;9.410;2022-08-19T12:05:38;7.77;;;4.20;;
69185;SDS011;56298;49.246;9.410;2022-08-19T12:08:05;6.93;;;3.50;;
69185;SDS011;56298;49.246;9.410;2022-08-19T12:10:30;6.50;;;3.72;;
69185;SDS011;56298;49.246;9.410;2022-08-19T12:12:56;6.03;;;3.80;;
69185;SDS011;56298;49.246;9.410;2022-08-19T12:15:21;6.68;;;3.45;;
69185;SDS011;56298;49.246;9.410;2022-08-19T12:17:47;5.73;;;3.03;;
69185;SDS011;56298;49.246;9.410;2022-08-19T12:20:12;5.90;;;3.40;;
69185;SDS011;56298;49.246;9.410;2022-08-19T12:22:40;6.25;;;3.40;;
69185;SDS011;56298;49.246;9.410;2022-08-19T12:25:10;5.88;;;3.40;;
69185;SDS011;56298;49.246;9.410;2022-08-19T12:27:36;5.68;;;3.53;;
69185;SDS011;56298;49.246;9.410;2022-08-19T12:30:04;6.43;;;3.60;;
69185;SDS011;56298;49.246;9.410;2022-08-19T12:32:31;6.30;;;3.50;;
69185;SDS011;56298;49.246;9.410;2022-08-19T12:34:57;6.55;;;3.40;;
69185;SDS011;56298;49.246;9.410;2022-08-19T12:37:23;5.30;;;3.30;;
69185;SDS011;56298;49.246;9.410;2022-08-19T12:39:48;5.53;;;3.50;;
69185;SDS011;56298;49.246;9.410;2022-08-19T12:42:13;5.37;;;3.27;;
69185;SDS011;56298;49.246;9.410;2022-08-19T12:44:40;7.35;;;3.45;;
69185;SDS011;56298;49.246;9.410;2022-08-19T12:47:06;6.05;;;3.58;;
69185;SDS011;56298;49.246;9.410;2022-08-19T12:49:34;6.25;;;3.42;;
69185;SDS011;56298;49.246;9.410;2022-08-19T12:52:01;5.43;;;3.07;;
69185;SDS011;56298;49.246;9.410;2022-08-19T12:54:28;5.70;;;3.20;;
69185;SDS011;56298;49.246;9.410;2022-08-19T12:56:55;5.38;;;3.17;;
69185;SDS011;56298;49.246;9.410;2022-08-19T12:59:21;6.88;;;3.45;;
69185;SDS011;56298;49.246;9.410;2022-08-19T13:01:46;5.43;;;3.35;;
69185;SDS011;56298;49.246;9.410;2022-08-19T13:04:12;6.23;;;3.30;;
69185;SDS011;56298;49.246;9.410;2022-08-19T13:06:37;5.30;;;3.27;;
69185;SDS011;56298;49.246;9.410;2022-08-19T13:09:03;5.67;;;3.50;;
69185;SDS011;56298;49.246;9.410;2022-08-19T13:11:29;5.83;;;3.30;;
69185;SDS011;56298;49.246;9.410;2022-08-19T13:13:57;5.75;;;3.28;;
69185;SDS011;56298;49.246;9.410;2022-08-19T13:16:23;6.20;;;3.45;;
69185;SDS011;56298;49.246;9.410;2022-08-19T13:18:48;6.53;;;3.60;;
69185;SDS011;56298;49.246;9.410;2022-08-19T13:21:16;6.95;;;3.40;;
69185;SDS011;56298;49.246;9.410;2022-08-19T13:23:44;6.13;;;3.35;;
69185;SDS011;56298;49.246;9.410;2022-08-19T13:26:10;6.43;;;3.40;;
69185;SDS011;56298;49.246;9.410;2022-08-19T13:28:36;5.90;;;3.30;;
69185;SDS011;56298;49.246;9.410;2022-08-19T13:31:21;7.90;;;3.33;;
69185;SDS011;56298;49.246;9.410;2022-08-19T13:34:07;5.03;;;2.97;;
69185;SDS011;56298;49.246;9.410;2022-08-19T13:36:33;5.45;;;3.00;;
69185;SDS011;56298;49.246;9.410;2022-08-19T13:38:59;5.80;;;2.92;;
69185;SDS011;56298;49.246;9.410;2022-08-19T13:41:25;5.63;;;2.77;;
69185;SDS011;56298;49.246;9.410;2022-08-19T13:43:50;6.35;;;3.13;;
69185;SDS011;56298;49.246;9.410;2022-08-19T13:46:16;4.80;;;2.97;;
69185;SDS011;56298;49.246;9.410;2022-08-19T13:48:41;5.90;;;3.00;;
69185;SDS011;56298;49.246;9.410;2022-08-19T13:51:07;7.72;;;3.60;;
69185;SDS011;56298;49.246;9.410;2022-08-19T13:53:35;6.87;;;3.50;;
69185;SDS011;56298;49.246;9.410;2022-08-19T13:56:05;6.10;;;3.60;;
69185;SDS011;56298;49.246;9.410;2022-08-19T13:58:31;6.67;;;3.70;;
69185;SDS011;56298;49.246;9.410;2022-08-19T14:00:56;5.55;;;3.80;;
69185;SDS011;56298;49.246;9.410;2022-08-19T14:03:22;5.97;;;3.53;;
69185;SDS011;56298;49.246;9.410;2022-08-19T14:05:48;6.35;;;3.78;;
69185;SDS011;56298;49.246;9.410;2022-08-19T14:08:14;5.32;;;3.50;;
69185;SDS011;56298;49.246;9.410;2022-08-19T14:10:39;8.07;;;3.90;;
69185;SDS011;56298;49.246;9.410;2022-08-19T14:13:05;6.63;;;3.63;;
69185;SDS011;56298;49.246;9.410;2022-08-19T14:15:30;5.90;;;3.57;;
69185;SDS011;56298;49.246;9.410;2022-08-19T14:17:56;5.90;;;3.77;;
69185;SDS011;56298;49.246;9.410;2022-08-19T14:20:22;5.90;;;3.60;;
69185;SDS011;56298;49.246;9.410;2022-08-19T14:22:48;6.20;;;3.90;;
69185;SDS011;56298;49.246;9.410;2022-08-19T14:25:16;8.40;;;3.88;;
69185;SDS011;56298;49.246;9.410;2022-08-19T14:27:43;7.00;;;4.00;;
69185;SDS011;56298;49.246;9.410;2022-08-19T14:30:10;6.90;;;4.18;;
69185;SDS011;56298;49.246;9.410;2022-08-19T14:32:38;7.05;;;4.00;;
69185;SDS011;56298;49.246;9.410;2022-08-19T14:35:04;7.70;;;4.50;;
69185;SDS011;56298;49.246;9.410;2022-08-19T14:37:32;6.63;;;4.17;;
69185;SDS011;56298;49.246;9.410;2022-08-19T14:39:59;7.30;;;4.30;;
69185;SDS011;56298;49.246;9.410;2022-08-19T14:42:24;7.70;;;4.30;;
69185;SDS011;56298;49.246;9.410;2022-08-19T14:44:49;9.37;;;4.57;;
69185;SDS011;56298;49.246;9.410;2022-08-19T14:47:14;8.87;;;4.30;;